sensor_id;sensor_type;location;lat;lon;timestamp;P1;durP1;ratioP1;P2;durP2;ratioP2
43877;SDS011;29815;48.184;11.268;2023-04-24T00:02:00;3.47;;;1.25;;
43877;SDS011;29815;48.184;11.268;2023-04-24T00:04:30;0.75;;;0.75;;
43877;SDS011;29815;48.184;11.268;2023-04-24T00:07:00;1.63;;;0.98;;
43877;SDS011;29815;48.184;11.268;2023-04-24T00:09:30;1.95;;;1.15;;
43877;SDS011;29815;48.184;11.268;2023-04-24T00:11:59;1.05;;;0.70;;
43877;SDS011;29815;48.184;11.268;2023-04-24T00:14:32;1.20;;;0.90;;
43877;SDS011;29815;48.184;11.268;2023-04-24T00:17:02;2.05;;;0.88;;
43877;SDS011;29815;48.184;11.268;2023-04-24T00:19:32;1.40;;;0.90;;
43877;SDS011;29815;48.184;11.268;2023-04-24T00:22:01;2.30;;;1.25;;
43877;SDS011;29815;48.184;11.268;2023-04-24T00:24:31;1.17;;;0.88;;
43877;SDS011;29815;48.184;11.268;2023-04-24T00:27:00;1.05;;;0.70;;
43877;SDS011;29815;48.184;11.268;2023-04-24T00:29:31;1.00;;;0.70;;
43877;SDS011;29815;48.184;11.268;2023-04-24T00:32:01;1.42;;;0.85;;
43877;SDS011;29815;48.184;11.268;2023-04-24T00:34:32;1.15;;;0.77;;
43877;SDS011;29815;48.184;11.268;2023-04-24T00:37:02;1.30;;;0.80;;
43877;SDS011;29815;48.184;11.268;2023-04-24T00:39:32;0.70;;;0.60;;
43877;SDS011;29815;48.184;11.268;2023-04-24T00:42:02;1.08;;;0.75;;
43877;SDS011;29815;48.184;11.268;2023-04-24T00:44:35;1.55;;;0.90;;
43877;SDS011;29815;48.184;11.268;2023-04-24T00:47:04;1.60;;;0.55;;
43877;SDS011;29815;48.184;11.268;2023-04-24T00:49:34;1.45;;;0.77;;
43877;SDS011;29815;48.184;11.268;2023-04-24T00:52:03;1.45;;;0.60;;
43877;SDS011;29815;48.184;11.268;2023-04-24T00:54:36;1.43;;;1.00;;
43877;SDS011;29815;48.184;11.268;2023-04-24T00:57:05;1.48;;;1.00;;
43877;SDS011;29815;48.184;11.268;2023-04-24T00:59:37;1.42;;;0.80;;
43877;SDS011;29815;48.184;11.268;2023-04-24T01:02:08;2.30;;;0.80;;
43877;SDS011;29815;48.184;11.268;2023-04-24T01:04:39;1.45;;;0.73;;
43877;SDS011;29815;48.184;11.268;2023-04-24T01:07:09;2.00;;;0.65;;
43877;SDS011;29815;48.184;11.268;2023-04-24T01:09:39;1.67;;;0.60;;
43877;SDS011;29815;48.184;11.268;2023-04-24T01:12:10;1.10;;;0.60;;
43877;SDS011;29815;48.184;11.268;2023-04-24T01:14:41;1.58;;;0.68;;
43877;SDS011;29815;48.184;11.268;2023-04-24T01:17:11;1.27;;;0.60;;
43877;SDS011;29815;48.184;11.268;2023-04-24T01:19:40;2.85;;;0.90;;
43877;SDS011;29815;48.184;11.268;2023-04-24T01:22:14;0.45;;;0.45;;
43877;SDS011;29815;48.184;11.268;2023-04-24T01:24:44;0.93;;;0.75;;
43877;SDS011;29815;48.184;11.268;2023-04-24T01:27:14;1.00;;;0.65;;
43877;SDS011;29815;48.184;11.268;2023-04-24T01:29:45;2.13;;;0.50;;
43877;SDS011;29815;48.184;11.268;2023-04-24T01:32:16;0.57;;;0.45;;
43877;SDS011;29815;48.184;11.268;2023-04-24T01:34:47;0.77;;;0.60;;
43877;SDS011;29815;48.184;11.268;2023-04-24T01:37:19;0.88;;;0.65;;
43877;SDS011;29815;48.184;11.268;2023-04-24T01:39:49;1.05;;;0.57;;
43877;SDS011;29815;48.184;11.268;2023-04-24T01:42:19;1.42;;;0.80;;
43877;SDS011;29815;48.184;11.268;2023-04-24T01:44:48;0.77;;;0.52;;
43877;SDS011;29815;48.184;11.268;2023-04-24T01:47:19;0.73;;;0.60;;
43877;SDS011;29815;48.184;11.268;2023-04-24T01:49:50;1.15;;;0.65;;
43877;SDS011;29815;48.184;11.268;2023-04-24T01:52:21;0.70;;;0.57;;
43877;SDS011;29815;48.184;11.268;2023-04-24T01:54:52;0.90;;;0.60;;
43877;SDS011;29815;48.184;11.268;2023-04-24T01:57:23;2.40;;;0.75;;
43877;SDS011;29815;48.184;11.268;2023-04-24T01:59:52;1.42;;;0.70;;
43877;SDS011;29815;48.184;11.268;2023-04-24T02:02:22;1.00;;;0.60;;
43877;SDS011;29815;48.184;11.268;2023-04-24T02:04:56;1.08;;;0.68;;
43877;SDS011;29815;48.184;11.268;2023-04-24T02:07:28;0.52;;;0.47;;
43877;SDS011;29815;48.184;11.268;2023-04-24T02:09:58;0.85;;;0.50;;
43877;SDS011;29815;48.184;11.268;2023-04-24T02:12:28;0.63;;;0.63;;
43877;SDS011;29815;48.184;11.268;2023-04-24T02:14:57;1.23;;;0.60;;
43877;SDS011;29815;48.184;11.268;2023-04-24T02:17:29;0.75;;;0.50;;
43877;SDS011;29815;48.184;11.268;2023-04-24T02:19:58;0.98;;;0.63;;
43877;SDS011;29815;48.184;11.268;2023-04-24T02:22:29;2.25;;;0.70;;
43877;SDS011;29815;48.184;11.268;2023-04-24T02:25:01;0.68;;;0.68;;
43877;SDS011;29815;48.184;11.268;2023-04-24T02:27:32;1.13;;;0.65;;
43877;SDS011;29815;48.184;11.268;2023-04-24T02:30:05;0.50;;;0.50;;
43877;SDS011;29815;48.184;11.268;2023-04-24T02:32:37;3.10;;;0.70;;
43877;SDS011;29815;48.184;11.268;2023-04-24T02:35:09;0.75;;;0.57;;
43877;SDS011;29815;48.184;11.268;2023-04-24T02:37:41;2.00;;;0.70;;
43877;SDS011;29815;48.184;11.268;2023-04-24T02:40:12;0.63;;;0.50;;
43877;SDS011;29815;48.184;11.268;2023-04-24T02:42:42;0.73;;;0.47;;
43877;SDS011;29815;48.184;11.268;2023-04-24T02:45:12;1.63;;;0.63;;
43877;SDS011;29815;48.184;11.268;2023-04-24T02:47:42;1.38;;;0.70;;
43877;SDS011;29815;48.184;11.268;2023-04-24T02:50:12;1.80;;;0.90;;
43877;SDS011;29815;48.184;11.268;2023-04-24T02:52:43;0.85;;;0.40;;
43877;SDS011;29815;48.184;11.268;2023-04-24T02:55:12;0.70;;;0.70;;
43877;SDS011;29815;48.184;11.268;2023-04-24T02:57:42;0.93;;;0.68;;
43877;SDS011;29815;48.184;11.268;2023-04-24T03:00:12;1.60;;;1.10;;
43877;SDS011;29815;48.184;11.268;2023-04-24T03:02:42;2.25;;;0.70;;
43877;SDS011;29815;48.184;11.268;2023-04-24T03:05:12;2.03;;;0.70;;
43877;SDS011;29815;48.184;11.268;2023-04-24T03:07:43;0.95;;;0.63;;
43877;SDS011;29815;48.184;11.268;2023-04-24T03:10:12;0.80;;;0.60;;
43877;SDS011;29815;48.184;11.268;2023-04-24T03:12:42;1.15;;;0.85;;
43877;SDS011;29815;48.184;11.268;2023-04-24T03:15:11;0.80;;;0.70;;
43877;SDS011;29815;48.184;11.268;2023-04-24T03:17:41;1.20;;;0.70;;
43877;SDS011;29815;48.184;11.268;2023-04-24T03:20:11;1.25;;;0.70;;
43877;SDS011;29815;48.184;11.268;2023-04-24T03:22:40;2.00;;;0.65;;
43877;SDS011;29815;48.184;11.268;2023-04-24T03:25:11;0.93;;;0.65;;
43877;SDS011;29815;48.184;11.268;2023-04-24T03:27:41;1.15;;;0.80;;
43877;SDS011;29815;48.184;11.268;2023-04-24T03:30:23;3.85;;;0.90;;
43877;SDS011;29815;48.184;11.268;2023-04-24T03:32:57;1.25;;;0.90;;
43877;SDS011;29815;48.184;11.268;2023-04-24T03:35:30;1.95;;;1.08;;
43877;SDS011;29815;48.184;11.268;2023-04-24T03:38:04;3.22;;;0.73;;
43877;SDS011;29815;48.184;11.268;2023-04-24T03:40:43;1.40;;;0.73;;
43877;SDS011;29815;48.184;11.268;2023-04-24T03:43:31;1.23;;;0.70;;
43877;SDS011;29815;48.184;11.268;2023-04-24T03:46:02;1.63;;;0.93;;
43877;SDS011;29815;48.184;11.268;2023-04-24T03:48:36;2.15;;;0.80;;
43877;SDS011;29815;48.184;11.268;2023-04-24T03:51:08;2.05;;;0.85;;
43877;SDS011;29815;48.184;11.268;2023-04-24T03:53:41;1.02;;;0.80;;
43877;SDS011;29815;48.184;11.268;2023-04-24T03:56:14;2.03;;;0.80;;
43877;SDS011;29815;48.184;11.268;2023-04-24T03:58:44;0.73;;;0.63;;
43877;SDS011;29815;48.184;11.268;2023-04-24T04:01:13;0.73;;;0.50;;
43877;SDS011;29815;48.184;11.268;2023-04-24T04:03:51;1.67;;;0.90;;
43877;SDS011;29815;48.184;11.268;2023-04-24T04:06:24;1.87;;;0.90;;
43877;SDS011;29815;48.184;11.268;2023-04-24T04:08:56;1.50;;;0.73;;
43877;SDS011;29815;48.184;11.268;2023-04-24T04:11:27;0.77;;;0.60;;
43877;SDS011;29815;48.184;11.268;2023-04-24T04:13:56;1.17;;;0.90;;
43877;SDS011;29815;48.184;11.268;2023-04-24T04:16:26;1.67;;;0.80;;
43877;SDS011;29815;48.184;11.268;2023-04-24T04:19:01;2.00;;;0.70;;
43877;SDS011;29815;48.184;11.268;2023-04-24T04:21:31;1.58;;;0.50;;
43877;SDS011;29815;48.184;11.268;2023-04-24T04:24:19;1.13;;;0.70;;
43877;SDS011;29815;48.184;11.268;2023-04-24T04:26:50;1.00;;;0.70;;
43877;SDS011;29815;48.184;11.268;2023-04-24T04:29:38;1.80;;;0.47;;
43877;SDS011;29815;48.184;11.268;2023-04-24T04:32:10;0.60;;;0.57;;
43877;SDS011;29815;48.184;11.268;2023-04-24T04:34:40;1.02;;;0.63;;
43877;SDS011;29815;48.184;11.268;2023-04-24T04:37:11;0.98;;;0.68;;
43877;SDS011;29815;48.184;11.268;2023-04-24T04:39:52;3.38;;;0.60;;
43877;SDS011;29815;48.184;11.268;2023-04-24T04:42:25;1.08;;;0.70;;
43877;SDS011;29815;48.184;11.268;2023-04-24T04:44:55;1.02;;;0.63;;
43877;SDS011;29815;48.184;11.268;2023-04-24T04:47:35;0.65;;;0.50;;
43877;SDS011;29815;48.184;11.268;2023-04-24T04:50:05;1.48;;;0.70;;
43877;SDS011;29815;48.184;11.268;2023-04-24T04:52:36;1.65;;;0.63;;
43877;SDS011;29815;48.184;11.268;2023-04-24T04:55:18;2.03;;;0.70;;
43877;SDS011;29815;48.184;11.268;2023-04-24T04:58:06;1.73;;;0.60;;
43877;SDS011;29815;48.184;11.268;2023-04-24T05:00:36;0.70;;;0.57;;
43877;SDS011;29815;48.184;11.268;2023-04-24T05:03:15;0.98;;;0.75;;
43877;SDS011;29815;48.184;11.268;2023-04-24T05:05:52;1.48;;;0.55;;
43877;SDS011;29815;48.184;11.268;2023-04-24T05:08:26;1.95;;;0.30;;
43877;SDS011;29815;48.184;11.268;2023-04-24T05:10:57;0.65;;;0.65;;
43877;SDS011;29815;48.184;11.268;2023-04-24T05:13:29;0.75;;;0.50;;
43877;SDS011;29815;48.184;11.268;2023-04-24T05:16:26;1.40;;;0.60;;
43877;SDS011;29815;48.184;11.268;2023-04-24T05:18:56;0.50;;;0.50;;
43877;SDS011;29815;48.184;11.268;2023-04-24T05:21:30;1.20;;;0.60;;
43877;SDS011;29815;48.184;11.268;2023-04-24T05:24:00;1.17;;;0.88;;
43877;SDS011;29815;48.184;11.268;2023-04-24T05:26:51;0.75;;;0.45;;
43877;SDS011;29815;48.184;11.268;2023-04-24T05:29:25;0.73;;;0.52;;
43877;SDS011;29815;48.184;11.268;2023-04-24T05:31:55;0.93;;;0.60;;
43877;SDS011;29815;48.184;11.268;2023-04-24T05:34:25;2.00;;;0.60;;
43877;SDS011;29815;48.184;11.268;2023-04-24T05:36:56;0.75;;;0.50;;
43877;SDS011;29815;48.184;11.268;2023-04-24T05:39:26;1.15;;;0.60;;
43877;SDS011;29815;48.184;11.268;2023-04-24T05:41:57;2.20;;;0.80;;
43877;SDS011;29815;48.184;11.268;2023-04-24T05:44:26;0.68;;;0.60;;
43877;SDS011;29815;48.184;11.268;2023-04-24T05:46:56;1.38;;;1.23;;
43877;SDS011;29815;48.184;11.268;2023-04-24T05:49:26;1.10;;;0.80;;
43877;SDS011;29815;48.184;11.268;2023-04-24T05:51:56;1.25;;;0.43;;
43877;SDS011;29815;48.184;11.268;2023-04-24T05:54:26;0.80;;;0.32;;
43877;SDS011;29815;48.184;11.268;2023-04-24T05:56:57;0.73;;;0.40;;
43877;SDS011;29815;48.184;11.268;2023-04-24T05:59:38;2.80;;;0.82;;
43877;SDS011;29815;48.184;11.268;2023-04-24T06:02:10;0.98;;;0.50;;
43877;SDS011;29815;48.184;11.268;2023-04-24T06:04:40;1.00;;;0.80;;
43877;SDS011;29815;48.184;11.268;2023-04-24T06:07:10;0.88;;;0.50;;
43877;SDS011;29815;48.184;11.268;2023-04-24T06:09:42;0.50;;;0.50;;
43877;SDS011;29815;48.184;11.268;2023-04-24T06:12:13;0.88;;;0.47;;
43877;SDS011;29815;48.184;11.268;2023-04-24T06:15:00;0.40;;;0.40;;
43877;SDS011;29815;48.184;11.268;2023-04-24T06:18:02;1.02;;;0.50;;
43877;SDS011;29815;48.184;11.268;2023-04-24T06:20:33;0.55;;;0.40;;
43877;SDS011;29815;48.184;11.268;2023-04-24T06:23:02;2.05;;;0.60;;
43877;SDS011;29815;48.184;11.268;2023-04-24T06:25:33;1.67;;;0.68;;
43877;SDS011;29815;48.184;11.268;2023-04-24T06:28:05;4.20;;;0.50;;
43877;SDS011;29815;48.184;11.268;2023-04-24T06:30:35;0.93;;;0.63;;
43877;SDS011;29815;48.184;11.268;2023-04-24T06:33:04;1.60;;;0.63;;
43877;SDS011;29815;48.184;11.268;2023-04-24T06:35:47;0.75;;;0.35;;
43877;SDS011;29815;48.184;11.268;2023-04-24T06:38:16;2.20;;;0.50;;
43877;SDS011;29815;48.184;11.268;2023-04-24T06:40:46;2.00;;;0.55;;
43877;SDS011;29815;48.184;11.268;2023-04-24T06:43:16;0.90;;;0.52;;
43877;SDS011;29815;48.184;11.268;2023-04-24T06:45:46;0.85;;;0.40;;
43877;SDS011;29815;48.184;11.268;2023-04-24T06:48:16;1.00;;;0.52;;
43877;SDS011;29815;48.184;11.268;2023-04-24T06:50:45;0.47;;;0.47;;
43877;SDS011;29815;48.184;11.268;2023-04-24T06:53:15;0.50;;;0.30;;
43877;SDS011;29815;48.184;11.268;2023-04-24T06:55:44;0.77;;;0.60;;
43877;SDS011;29815;48.184;11.268;2023-04-24T06:58:14;1.05;;;0.50;;
43877;SDS011;29815;48.184;11.268;2023-04-24T07:00:45;0.65;;;0.52;;
43877;SDS011;29815;48.184;11.268;2023-04-24T07:03:14;0.95;;;0.65;;
43877;SDS011;29815;48.184;11.268;2023-04-24T07:05:44;1.10;;;0.70;;
43877;SDS011;29815;48.184;11.268;2023-04-24T07:08:15;0.95;;;0.45;;
43877;SDS011;29815;48.184;11.268;2023-04-24T07:10:45;0.80;;;0.40;;
43877;SDS011;29815;48.184;11.268;2023-04-24T07:13:16;2.97;;;0.60;;
43877;SDS011;29815;48.184;11.268;2023-04-24T07:15:46;0.95;;;0.50;;
43877;SDS011;29815;48.184;11.268;2023-04-24T07:18:17;0.93;;;0.40;;
43877;SDS011;29815;48.184;11.268;2023-04-24T07:20:47;1.48;;;0.50;;
43877;SDS011;29815;48.184;11.268;2023-04-24T07:23:17;0.63;;;0.40;;
43877;SDS011;29815;48.184;11.268;2023-04-24T07:25:48;0.85;;;0.47;;
43877;SDS011;29815;48.184;11.268;2023-04-24T07:28:18;1.05;;;0.50;;
43877;SDS011;29815;48.184;11.268;2023-04-24T07:30:48;2.72;;;1.25;;
43877;SDS011;29815;48.184;11.268;2023-04-24T07:33:17;4.10;;;0.60;;
43877;SDS011;29815;48.184;11.268;2023-04-24T07:35:47;1.23;;;0.52;;
43877;SDS011;29815;48.184;11.268;2023-04-24T07:38:17;0.77;;;0.47;;
43877;SDS011;29815;48.184;11.268;2023-04-24T07:40:48;1.95;;;0.60;;
43877;SDS011;29815;48.184;11.268;2023-04-24T07:43:19;0.68;;;0.40;;
43877;SDS011;29815;48.184;11.268;2023-04-24T07:45:49;0.55;;;0.40;;
43877;SDS011;29815;48.184;11.268;2023-04-24T07:48:19;1.65;;;0.60;;
43877;SDS011;29815;48.184;11.268;2023-04-24T07:50:49;1.77;;;1.27;;
43877;SDS011;29815;48.184;11.268;2023-04-24T07:53:19;0.93;;;0.57;;
43877;SDS011;29815;48.184;11.268;2023-04-24T07:55:48;1.10;;;0.47;;
43877;SDS011;29815;48.184;11.268;2023-04-24T07:58:19;0.80;;;0.50;;
43877;SDS011;29815;48.184;11.268;2023-04-24T08:00:48;2.40;;;1.33;;
43877;SDS011;29815;48.184;11.268;2023-04-24T08:03:18;1.35;;;0.63;;
43877;SDS011;29815;48.184;11.268;2023-04-24T08:05:48;0.47;;;0.30;;
43877;SDS011;29815;48.184;11.268;2023-04-24T08:08:20;1.00;;;0.52;;
43877;SDS011;29815;48.184;11.268;2023-04-24T08:10:51;1.95;;;0.60;;
43877;SDS011;29815;48.184;11.268;2023-04-24T08:13:22;1.63;;;0.70;;
43877;SDS011;29815;48.184;11.268;2023-04-24T08:15:51;0.50;;;0.50;;
43877;SDS011;29815;48.184;11.268;2023-04-24T08:18:21;8.23;;;0.70;;
43877;SDS011;29815;48.184;11.268;2023-04-24T08:20:51;1.77;;;0.60;;
43877;SDS011;29815;48.184;11.268;2023-04-24T08:23:20;2.83;;;1.08;;
43877;SDS011;29815;48.184;11.268;2023-04-24T08:25:50;1.42;;;0.90;;
43877;SDS011;29815;48.184;11.268;2023-04-24T08:28:19;1.30;;;0.80;;
43877;SDS011;29815;48.184;11.268;2023-04-24T08:30:50;2.92;;;0.75;;
43877;SDS011;29815;48.184;11.268;2023-04-24T08:33:22;0.77;;;0.63;;
43877;SDS011;29815;48.184;11.268;2023-04-24T08:35:52;1.52;;;1.05;;
43877;SDS011;29815;48.184;11.268;2023-04-24T08:38:21;3.08;;;1.00;;
43877;SDS011;29815;48.184;11.268;2023-04-24T08:40:52;2.10;;;0.90;;
43877;SDS011;29815;48.184;11.268;2023-04-24T08:43:23;0.82;;;0.80;;
43877;SDS011;29815;48.184;11.268;2023-04-24T08:45:54;1.05;;;0.95;;
43877;SDS011;29815;48.184;11.268;2023-04-24T08:48:26;2.72;;;0.80;;
43877;SDS011;29815;48.184;11.268;2023-04-24T08:50:58;1.92;;;0.98;;
43877;SDS011;29815;48.184;11.268;2023-04-24T08:53:28;2.40;;;1.20;;
43877;SDS011;29815;48.184;11.268;2023-04-24T08:56:01;2.80;;;1.00;;
43877;SDS011;29815;48.184;11.268;2023-04-24T08:58:33;4.28;;;1.98;;
43877;SDS011;29815;48.184;11.268;2023-04-24T09:01:04;1.33;;;0.93;;
43877;SDS011;29815;48.184;11.268;2023-04-24T09:03:34;1.40;;;1.00;;
43877;SDS011;29815;48.184;11.268;2023-04-24T09:06:04;3.05;;;1.23;;
43877;SDS011;29815;48.184;11.268;2023-04-24T09:08:36;2.00;;;1.50;;
43877;SDS011;29815;48.184;11.268;2023-04-24T09:11:09;2.75;;;1.30;;
43877;SDS011;29815;48.184;11.268;2023-04-24T09:13:41;3.00;;;1.77;;
43877;SDS011;29815;48.184;11.268;2023-04-24T09:16:12;2.22;;;1.42;;
43877;SDS011;29815;48.184;11.268;2023-04-24T09:18:42;2.65;;;1.50;;
43877;SDS011;29815;48.184;11.268;2023-04-24T09:21:12;4.38;;;1.70;;
43877;SDS011;29815;48.184;11.268;2023-04-24T09:23:42;1.98;;;1.52;;
43877;SDS011;29815;48.184;11.268;2023-04-24T09:26:12;2.50;;;1.50;;
43877;SDS011;29815;48.184;11.268;2023-04-24T09:28:43;5.22;;;1.60;;
43877;SDS011;29815;48.184;11.268;2023-04-24T09:31:14;3.05;;;1.73;;
43877;SDS011;29815;48.184;11.268;2023-04-24T09:33:53;1.73;;;1.23;;
43877;SDS011;29815;48.184;11.268;2023-04-24T09:36:28;5.05;;;2.22;;
43877;SDS011;29815;48.184;11.268;2023-04-24T09:41:32;2.03;;;1.48;;
43877;SDS011;29815;48.184;11.268;2023-04-24T09:44:12;2.35;;;1.60;;
43877;SDS011;29815;48.184;11.268;2023-04-24T09:46:44;2.72;;;1.90;;
43877;SDS011;29815;48.184;11.268;2023-04-24T09:49:21;2.05;;;1.55;;
43877;SDS011;29815;48.184;11.268;2023-04-24T09:51:53;2.65;;;1.35;;
43877;SDS011;29815;48.184;11.268;2023-04-24T09:54:33;2.90;;;1.50;;
43877;SDS011;29815;48.184;11.268;2023-04-24T09:57:04;2.13;;;1.40;;
43877;SDS011;29815;48.184;11.268;2023-04-24T09:59:39;2.17;;;1.60;;
43877;SDS011;29815;48.184;11.268;2023-04-24T10:02:16;2.97;;;1.58;;
43877;SDS011;29815;48.184;11.268;2023-04-24T10:04:53;3.13;;;1.30;;
43877;SDS011;29815;48.184;11.268;2023-04-24T10:07:25;2.72;;;1.75;;
43877;SDS011;29815;48.184;11.268;2023-04-24T10:09:55;1.63;;;1.52;;
43877;SDS011;29815;48.184;11.268;2023-04-24T10:12:24;3.10;;;1.60;;
43877;SDS011;29815;48.184;11.268;2023-04-24T10:14:57;1.55;;;1.27;;
43877;SDS011;29815;48.184;11.268;2023-04-24T10:17:29;1.95;;;1.65;;
43877;SDS011;29815;48.184;11.268;2023-04-24T10:19:58;2.67;;;1.45;;
43877;SDS011;29815;48.184;11.268;2023-04-24T10:22:30;4.18;;;1.40;;
43877;SDS011;29815;48.184;11.268;2023-04-24T10:25:00;2.50;;;1.52;;
43877;SDS011;29815;48.184;11.268;2023-04-24T10:27:34;3.67;;;1.98;;
43877;SDS011;29815;48.184;11.268;2023-04-24T10:30:08;2.58;;;1.00;;
43877;SDS011;29815;48.184;11.268;2023-04-24T10:32:42;2.17;;;0.80;;
43877;SDS011;29815;48.184;11.268;2023-04-24T10:35:12;0.90;;;0.85;;
43877;SDS011;29815;48.184;11.268;2023-04-24T10:37:45;2.33;;;0.90;;
43877;SDS011;29815;48.184;11.268;2023-04-24T10:40:24;3.53;;;1.20;;
43877;SDS011;29815;48.184;11.268;2023-04-24T10:42:56;1.13;;;0.80;;
43877;SDS011;29815;48.184;11.268;2023-04-24T10:45:27;0.70;;;0.65;;
43877;SDS011;29815;48.184;11.268;2023-04-24T10:47:57;1.40;;;0.80;;
43877;SDS011;29815;48.184;11.268;2023-04-24T10:50:42;1.10;;;0.80;;
43877;SDS011;29815;48.184;11.268;2023-04-24T10:53:15;1.75;;;0.80;;
43877;SDS011;29815;48.184;11.268;2023-04-24T10:55:47;2.33;;;1.33;;
43877;SDS011;29815;48.184;11.268;2023-04-24T10:58:21;1.93;;;0.90;;
43877;SDS011;29815;48.184;11.268;2023-04-24T11:00:57;1.80;;;1.40;;
43877;SDS011;29815;48.184;11.268;2023-04-24T11:03:29;2.88;;;1.50;;
43877;SDS011;29815;48.184;11.268;2023-04-24T11:06:02;2.05;;;1.52;;
43877;SDS011;29815;48.184;11.268;2023-04-24T11:08:37;1.67;;;1.08;;
43877;SDS011;29815;48.184;11.268;2023-04-24T11:11:09;2.47;;;1.10;;
43877;SDS011;29815;48.184;11.268;2023-04-24T11:16:44;1.90;;;1.33;;
43877;SDS011;29815;48.184;11.268;2023-04-24T11:19:21;1.00;;;0.90;;
43877;SDS011;29815;48.184;11.268;2023-04-24T11:21:54;2.53;;;1.13;;
43877;SDS011;29815;48.184;11.268;2023-04-24T11:24:30;2.60;;;1.25;;
43877;SDS011;29815;48.184;11.268;2023-04-24T11:27:14;1.08;;;0.82;;
43877;SDS011;29815;48.184;11.268;2023-04-24T11:29:48;2.50;;;0.88;;
43877;SDS011;29815;48.184;11.268;2023-04-24T11:32:30;1.00;;;0.82;;
43877;SDS011;29815;48.184;11.268;2023-04-24T11:35:05;1.77;;;1.08;;
43877;SDS011;29815;48.184;11.268;2023-04-24T11:37:41;1.15;;;0.88;;
43877;SDS011;29815;48.184;11.268;2023-04-24T11:40:25;1.73;;;1.08;;
43877;SDS011;29815;48.184;11.268;2023-04-24T11:42:59;2.20;;;1.30;;
43877;SDS011;29815;48.184;11.268;2023-04-24T11:46:08;2.13;;;1.30;;
43877;SDS011;29815;48.184;11.268;2023-04-24T11:48:39;1.25;;;1.00;;
43877;SDS011;29815;48.184;11.268;2023-04-24T11:51:15;2.63;;;1.13;;
43877;SDS011;29815;48.184;11.268;2023-04-24T11:54:14;1.67;;;1.05;;
43877;SDS011;29815;48.184;11.268;2023-04-24T11:56:44;2.38;;;1.20;;
43877;SDS011;29815;48.184;11.268;2023-04-24T11:59:15;2.10;;;1.40;;
43877;SDS011;29815;48.184;11.268;2023-04-24T12:01:44;3.38;;;1.58;;
43877;SDS011;29815;48.184;11.268;2023-04-24T12:04:16;1.30;;;1.20;;
43877;SDS011;29815;48.184;11.268;2023-04-24T12:06:59;2.10;;;1.10;;
43877;SDS011;29815;48.184;11.268;2023-04-24T12:09:39;1.70;;;1.30;;
43877;SDS011;29815;48.184;11.268;2023-04-24T12:12:13;1.48;;;1.10;;
43877;SDS011;29815;48.184;11.268;2023-04-24T12:14:47;1.43;;;1.20;;
43877;SDS011;29815;48.184;11.268;2023-04-24T12:17:17;1.35;;;0.85;;
43877;SDS011;29815;48.184;11.268;2023-04-24T12:20:01;3.05;;;1.48;;
43877;SDS011;29815;48.184;11.268;2023-04-24T12:22:45;3.75;;;1.35;;
43877;SDS011;29815;48.184;11.268;2023-04-24T12:25:19;7.60;;;1.85;;
43877;SDS011;29815;48.184;11.268;2023-04-24T12:27:53;1.67;;;1.02;;
43877;SDS011;29815;48.184;11.268;2023-04-24T12:30:39;1.90;;;1.08;;
43877;SDS011;29815;48.184;11.268;2023-04-24T12:33:12;2.38;;;1.38;;
43877;SDS011;29815;48.184;11.268;2023-04-24T12:35:47;1.50;;;1.02;;
43877;SDS011;29815;48.184;11.268;2023-04-24T12:38:21;1.77;;;1.17;;
43877;SDS011;29815;48.184;11.268;2023-04-24T12:41:01;3.50;;;1.40;;
43877;SDS011;29815;48.184;11.268;2023-04-24T12:43:32;2.80;;;1.13;;
43877;SDS011;29815;48.184;11.268;2023-04-24T12:46:03;2.85;;;1.30;;
43877;SDS011;29815;48.184;11.268;2023-04-24T12:48:33;2.05;;;1.40;;
43877;SDS011;29815;48.184;11.268;2023-04-24T12:51:04;3.28;;;1.63;;
43877;SDS011;29815;48.184;11.268;2023-04-24T12:53:34;3.13;;;1.42;;
43877;SDS011;29815;48.184;11.268;2023-04-24T12:56:04;2.35;;;1.35;;
43877;SDS011;29815;48.184;11.268;2023-04-24T12:58:34;2.38;;;1.50;;
43877;SDS011;29815;48.184;11.268;2023-04-24T13:01:03;2.83;;;1.40;;
43877;SDS011;29815;48.184;11.268;2023-04-24T13:03:33;3.13;;;1.40;;
43877;SDS011;29815;48.184;11.268;2023-04-24T13:06:03;4.82;;;1.88;;
43877;SDS011;29815;48.184;11.268;2023-04-24T13:08:34;1.90;;;1.13;;
43877;SDS011;29815;48.184;11.268;2023-04-24T13:11:03;3.35;;;1.25;;
43877;SDS011;29815;48.184;11.268;2023-04-24T13:13:33;1.75;;;1.30;;
43877;SDS011;29815;48.184;11.268;2023-04-24T13:16:03;1.52;;;1.15;;
43877;SDS011;29815;48.184;11.268;2023-04-24T13:18:33;3.22;;;1.15;;
43877;SDS011;29815;48.184;11.268;2023-04-24T13:21:04;2.22;;;1.40;;
43877;SDS011;29815;48.184;11.268;2023-04-24T13:23:34;4.22;;;1.30;;
43877;SDS011;29815;48.184;11.268;2023-04-24T13:26:03;2.25;;;1.20;;
43877;SDS011;29815;48.184;11.268;2023-04-24T13:28:33;2.13;;;1.58;;
43877;SDS011;29815;48.184;11.268;2023-04-24T13:31:03;2.30;;;1.10;;
43877;SDS011;29815;48.184;11.268;2023-04-24T13:33:33;3.28;;;1.73;;
43877;SDS011;29815;48.184;11.268;2023-04-24T13:36:04;3.58;;;1.88;;
43877;SDS011;29815;48.184;11.268;2023-04-24T13:38:34;4.03;;;2.03;;
43877;SDS011;29815;48.184;11.268;2023-04-24T13:41:03;2.55;;;1.10;;
43877;SDS011;29815;48.184;11.268;2023-04-24T13:43:33;3.20;;;1.63;;
43877;SDS011;29815;48.184;11.268;2023-04-24T13:46:03;6.80;;;1.85;;
43877;SDS011;29815;48.184;11.268;2023-04-24T13:48:32;2.67;;;1.60;;
43877;SDS011;29815;48.184;11.268;2023-04-24T13:51:02;5.43;;;1.92;;
43877;SDS011;29815;48.184;11.268;2023-04-24T13:53:33;4.20;;;1.73;;
43877;SDS011;29815;48.184;11.268;2023-04-24T13:56:05;2.67;;;1.48;;
43877;SDS011;29815;48.184;11.268;2023-04-24T13:58:36;1.75;;;1.23;;
43877;SDS011;29815;48.184;11.268;2023-04-24T14:01:06;6.20;;;2.15;;
43877;SDS011;29815;48.184;11.268;2023-04-24T14:03:36;2.22;;;1.10;;
43877;SDS011;29815;48.184;11.268;2023-04-24T14:06:08;1.90;;;1.40;;
43877;SDS011;29815;48.184;11.268;2023-04-24T14:08:38;1.88;;;1.33;;
43877;SDS011;29815;48.184;11.268;2023-04-24T14:11:07;3.40;;;1.40;;
43877;SDS011;29815;48.184;11.268;2023-04-24T14:13:37;3.05;;;1.23;;
43877;SDS011;29815;48.184;11.268;2023-04-24T14:16:07;3.35;;;1.40;;
43877;SDS011;29815;48.184;11.268;2023-04-24T14:18:37;1.48;;;1.23;;
43877;SDS011;29815;48.184;11.268;2023-04-24T14:21:08;4.05;;;1.90;;
43877;SDS011;29815;48.184;11.268;2023-04-24T14:23:37;2.78;;;1.52;;
43877;SDS011;29815;48.184;11.268;2023-04-24T14:26:07;2.92;;;1.50;;
43877;SDS011;29815;48.184;11.268;2023-04-24T14:28:36;3.13;;;1.70;;
43877;SDS011;29815;48.184;11.268;2023-04-24T14:31:07;3.00;;;1.42;;
43877;SDS011;29815;48.184;11.268;2023-04-24T14:33:36;5.22;;;1.48;;
43877;SDS011;29815;48.184;11.268;2023-04-24T14:36:07;3.67;;;1.80;;
43877;SDS011;29815;48.184;11.268;2023-04-24T14:38:37;2.90;;;1.20;;
43877;SDS011;29815;48.184;11.268;2023-04-24T14:41:06;4.35;;;1.50;;
43877;SDS011;29815;48.184;11.268;2023-04-24T14:43:40;1.92;;;1.17;;
43877;SDS011;29815;48.184;11.268;2023-04-24T14:46:10;2.75;;;1.60;;
43877;SDS011;29815;48.184;11.268;2023-04-24T14:48:42;4.47;;;1.20;;
43877;SDS011;29815;48.184;11.268;2023-04-24T14:51:13;2.17;;;1.27;;
43877;SDS011;29815;48.184;11.268;2023-04-24T14:53:43;2.60;;;1.70;;
43877;SDS011;29815;48.184;11.268;2023-04-24T14:56:14;4.35;;;1.40;;
43877;SDS011;29815;48.184;11.268;2023-04-24T14:58:44;4.40;;;1.70;;
43877;SDS011;29815;48.184;11.268;2023-04-24T15:01:14;4.07;;;1.50;;
43877;SDS011;29815;48.184;11.268;2023-04-24T15:03:44;3.58;;;1.50;;
43877;SDS011;29815;48.184;11.268;2023-04-24T15:06:16;1.88;;;1.23;;
43877;SDS011;29815;48.184;11.268;2023-04-24T15:08:46;2.83;;;1.13;;